Portada
METAR-TAF:

METAR-TAF

Aeroports :

Kos, Grècia

latitud: 36-47N, longitud: 027-04E, altitud: 129 m

Observació

L'informe es va fer fa 27 minuts, a les 09:50 UTC
Vent 5 kt del Nord
Temperatura 18°C
Humitat 64%
Pressió 1026 hPa
Visibilitat 10 km o més
sense núvols per sota de 1500 mi sense presència de cumulonimbus.

METAR: LGKO 160950Z 36005KT CAVOK 18/11 Q1026

Hora: 12:17 (10:17 UTC)

Pronòstic

L'informe es va fer fa 5 hores i 17 minuts, a les 05:00 UTC
Pronòstic vàlid del 16 a les 06 UTC al 17 a les 06 UTC
Vent 10 kt del Nord/Nord-Oest
Visibilitat 10 km o més
Escasses núvols a una alçada de 2000 ft
Evolucionant progressivament
l' 16 a les 12 UTC al 16 a les 14 UTC
Vent 10 kt del Nord/Nord-Oest amb ràfegues de 20 kt

TAF: LGKO 160500Z 1606/1706 33010KT 9999 FEW020 BECMG 1612/1614 33010G20KT

Observacions i pronòstics meteorològics de més de 4000 aeroports (METAR i TAF).

Les estacions disponibles són els punts grocs i vermells al mapa.

Posi el ratolí al punt desitjat per veure el nom de l'estació.

Feu clic per veure les observacions i els pronòstics meteorològics.

Per canviar el mapa: feu clic els botons verds amb una creu de color negre per apropar; al botó verd amb un guió per allunyar la imatge; o en les fletxes verdes per a mapes adjacents.


METAR-TAF: